Time;durP1;ratioP1;P1;durP2;ratioP2;P2;SDS_P1;SDS_P2;PMS_P1;PMS_P2;Temp;Humidity;BMP_temperature;BMP_pressure;BME280_temperature;BME280_humidity;BME280_pressure;Samples;Min_cycle;Max_cycle;Signal;HPM_P1;HPM_P2
2022/06/03 00:02:01;;;;;;;6.97;2.65;;;23.80;96.70;;;;;;5016798;28;20045;-78
2022/06/03 00:04:48;;;;;;;4.80;2.45;;;23.70;96.70;;;;;;5052986;28;20051;-78
2022/06/03 00:07:30;;;;;;;4.90;2.70;;;23.70;96.70;;;;;;5050869;28;20043;-79
2022/06/03 00:10:30;;;;;;;9.10;2.75;;;23.60;96.70;;;;;;5053938;28;20517;-78
2022/06/03 00:13:14;;;;;;;7.55;2.95;;;23.60;96.70;;;;;;5048332;28;20055;-78
2022/06/03 00:16:08;;;;;;;5.25;2.63;;;23.50;96.70;;;;;;5058675;28;20106;-78
2022/06/03 00:18:55;;;;;;;5.20;2.70;;;23.40;96.70;;;;;;5044888;28;20068;-79
2022/06/03 00:21:55;;;;;;;6.35;3.03;;;23.40;96.70;;;;;;5048718;28;20087;-78
2022/06/03 00:24:47;;;;;;;5.28;2.70;;;23.40;96.70;;;;;;5047194;28;20515;-78
2022/06/03 00:27:54;;;;;;;8.15;2.70;;;23.40;96.70;;;;;;5043647;28;20144;-78
2022/06/03 00:30:33;;;;;;;6.97;2.75;;;23.30;96.70;;;;;;5048362;28;20490;-78
2022/06/03 00:33:29;;;;;;;5.57;2.60;;;23.30;96.70;;;;;;5052248;28;20043;-78
2022/06/03 00:36:31;;;;;;;6.60;2.92;;;23.30;96.70;;;;;;5047488;28;20186;-79
2022/06/03 00:39:12;;;;;;;8.52;2.88;;;23.30;96.70;;;;;;5059405;28;20502;-78
2022/06/03 00:41:51;;;;;;;6.72;3.05;;;23.20;96.70;;;;;;5060687;28;20041;-78
2022/06/03 00:44:36;;;;;;;6.88;2.50;;;23.20;96.70;;;;;;5059948;28;20600;-78
2022/06/03 00:47:19;;;;;;;8.25;2.85;;;23.10;96.70;;;;;;5040878;28;20043;-78
2022/06/03 00:50:00;;;;;;;4.50;2.72;;;23.10;96.70;;;;;;5062676;28;20037;-78
2022/06/03 00:53:02;;;;;;;7.82;2.58;;;23.00;96.70;;;;;;5062683;28;20048;-78
2022/06/03 00:55:56;;;;;;;6.38;3.17;;;23.10;96.70;;;;;;5062913;28;20597;-77
2022/06/03 00:58:40;;;;;;;5.65;2.92;;;23.00;96.70;;;;;;5016216;28;20087;-78
2022/06/03 01:01:12;;;;;;;7.60;2.75;;;23.00;96.70;;;;;;5055631;28;20502;-78
2022/06/03 01:04:16;;;;;;;6.72;3.13;;;23.00;96.70;;;;;;5059501;28;20071;-77
2022/06/03 01:06:54;;;;;;;5.40;2.78;;;23.10;96.70;;;;;;5041799;28;20045;-78
2022/06/03 01:09:34;;;;;;;6.05;3.20;;;23.00;96.70;;;;;;5056277;28;20041;-79
2022/06/03 01:12:14;;;;;;;4.43;2.70;;;23.00;96.70;;;;;;5063045;28;20511;-78
2022/06/03 01:15:12;;;;;;;7.90;3.10;;;23.00;96.70;;;;;;5042267;28;20045;-78
2022/06/03 01:18:00;;;;;;;6.78;2.75;;;23.10;96.70;;;;;;5046748;28;20054;-79
2022/06/03 01:20:39;;;;;;;7.28;3.60;;;23.00;96.70;;;;;;5059462;28;20056;-79
2022/06/03 01:23:51;;;;;;;6.57;2.90;;;23.00;96.70;;;;;;5063991;28;20604;-76
2022/06/03 01:26:47;;;;;;;5.45;3.33;;;22.90;96.70;;;;;;5055277;28;20041;-76
2022/06/03 01:29:43;;;;;;;6.00;3.28;;;22.90;96.70;;;;;;5054246;28;20049;-77
2022/06/03 01:32:40;;;;;;;6.63;3.00;;;22.90;96.70;;;;;;5055231;28;20924;-75
2022/06/03 01:35:47;;;;;;;7.43;3.08;;;22.80;96.70;;;;;;5057554;28;20741;-76
2022/06/03 01:38:29;;;;;;;6.97;2.97;;;22.80;96.70;;;;;;5057178;28;20486;-76
2022/06/03 01:41:09;;;;;;;7.88;2.95;;;22.80;96.70;;;;;;5054506;28;20068;-76
2022/06/03 01:44:09;;;;;;;5.68;2.65;;;22.70;96.70;;;;;;5062080;28;20098;-76
2022/06/03 01:46:42;;;;;;;6.75;3.25;;;22.80;96.70;;;;;;5059300;28;20491;-76
2022/06/03 01:49:49;;;;;;;10.48;3.13;;;22.80;96.70;;;;;;5048752;28;20040;-77
2022/06/03 01:52:43;;;;;;;5.03;2.70;;;22.70;96.70;;;;;;5058298;28;20075;-77
2022/06/03 01:55:58;;;;;;;4.45;2.80;;;22.70;96.70;;;;;;5056584;28;20040;-77
2022/06/03 01:58:57;;;;;;;6.97;2.55;;;22.70;96.70;;;;;;5052881;28;20041;-77
2022/06/03 02:02:05;;;;;;;7.00;2.67;;;22.70;96.70;;;;;;5058119;28;20125;-76
2022/06/03 02:05:02;;;;;;;5.53;2.72;;;22.60;96.70;;;;;;5032623;28;20047;-77
2022/06/03 02:07:44;;;;;;;;;;;22.60;96.70;;;;;;5055873;28;20083;-77
2022/06/03 02:10:40;;;;;;;5.90;2.67;;;22.70;96.70;;;;;;5056839;28;20324;-77
2022/06/03 02:13:43;;;;;;;5.57;3.00;;;22.60;96.70;;;;;;5053611;28;20048;-77
2022/06/03 02:16:54;;;;;;;6.93;3.10;;;22.70;96.70;;;;;;5060664;28;20056;-77
2022/06/03 02:20:03;;;;;;;8.20;3.05;;;22.70;96.70;;;;;;5037085;28;20052;-77
2022/06/03 02:23:06;;;;;;;6.03;3.00;;;22.60;96.70;;;;;;5056062;28;20143;-77
2022/06/03 02:26:18;;;;;;;5.72;2.75;;;22.60;96.70;;;;;;5060983;28;20052;-77
2022/06/03 02:32:39;;;;;;;6.47;3.10;;;22.60;96.70;;;;;;4969572;28;20093;-77
2022/06/03 02:35:41;;;;;;;5.03;3.05;;;22.50;96.70;;;;;;5059585;28;20049;-77
2022/06/03 02:38:26;;;;;;;6.78;2.72;;;22.50;96.70;;;;;;5018895;28;20135;-77
2022/06/03 02:41:30;;;;;;;7.80;3.33;;;22.50;96.70;;;;;;5053895;28;20044;-79
2022/06/03 02:44:27;;;;;;;4.65;2.83;;;22.50;96.70;;;;;;5056850;28;20094;-77
2022/06/03 02:47:34;;;;;;;6.88;2.72;;;22.40;96.70;;;;;;5055058;28;20049;-77
2022/06/03 02:50:17;;;;;;;7.78;2.97;;;22.40;96.70;;;;;;5058925;28;20414;-79
2022/06/03 02:53:30;;;;;;;11.02;3.20;;;22.40;96.70;;;;;;5056854;28;20090;-79
2022/06/03 02:56:41;;;;;;;6.40;2.60;;;22.40;96.70;;;;;;5015214;28;20061;-79
2022/06/03 02:59:34;;;;;;;8.45;2.75;;;22.40;96.70;;;;;;4963312;28;20077;-79
2022/06/03 03:02:26;;;;;;;4.93;2.65;;;22.40;96.70;;;;;;4950507;28;20053;-78
2022/06/03 03:05:13;;;;;;;6.55;2.80;;;22.40;96.70;;;;;;5038192;28;20052;-78
2022/06/03 03:08:15;;;;;;;4.88;2.83;;;22.30;96.70;;;;;;5058739;28;20548;-79
2022/06/03 03:10:57;;;;;;;6.32;3.05;;;22.30;96.70;;;;;;5055002;28;20449;-79
2022/06/03 03:14:06;;;;;;;5.90;2.85;;;22.30;96.70;;;;;;5058206;28;20052;-79
2022/06/03 03:16:53;;;;;;;4.38;2.72;;;22.30;96.70;;;;;;5040521;28;20501;-78
2022/06/03 03:19:56;;;;;;;6.35;2.63;;;22.30;96.70;;;;;;5056393;28;20047;-79
2022/06/03 03:23:02;;;;;;;6.35;3.15;;;22.30;96.70;;;;;;5030644;28;20064;-79
2022/06/03 03:25:49;;;;;;;5.05;3.17;;;22.30;96.70;;;;;;5022716;28;20051;-78
2022/06/03 03:28:43;;;;;;;8.23;3.33;;;22.20;96.70;;;;;;5057654;28;20055;-80
2022/06/03 03:31:39;;;;;;;6.13;2.78;;;22.20;96.70;;;;;;5043482;28;20309;-79
2022/06/03 03:34:18;;;;;;;5.25;2.95;;;22.10;96.70;;;;;;5052991;28;20045;-79
2022/06/03 03:37:22;;;;;;;7.82;2.78;;;22.10;96.70;;;;;;5040581;28;20063;-79
2022/06/03 03:40:23;;;;;;;6.05;2.65;;;22.10;96.70;;;;;;5060104;28;20053;-79
2022/06/03 03:43:30;;;;;;;5.78;2.40;;;22.10;96.70;;;;;;5056788;28;20414;-79
2022/06/03 03:46:46;;;;;;;6.68;2.92;;;22.10;96.70;;;;;;5021340;28;20102;-80
2022/06/03 03:49:38;;;;;;;8.32;3.05;;;22.10;96.70;;;;;;5055786;28;20407;-80
2022/06/03 03:52:35;;;;;;;5.13;2.90;;;22.10;96.70;;;;;;5058639;28;20048;-77
2022/06/03 03:55:30;;;;;;;7.15;3.15;;;22.00;96.70;;;;;;5057975;28;20113;-77
2022/06/03 03:58:45;;;;;;;5.80;2.75;;;22.00;96.70;;;;;;5054539;28;20041;-78
2022/06/03 04:02:07;;;;;;;8.65;3.00;;;22.10;96.70;;;;;;4996774;28;20046;-78
2022/06/03 04:05:10;;;;;;;6.70;3.13;;;22.10;96.70;;;;;;4902623;29;20079;-78
2022/06/03 04:08:06;;;;;;;7.72;3.22;;;22.20;96.70;;;;;;4966186;28;20050;-78
2022/06/03 04:11:18;;;;;;;6.47;2.97;;;22.40;96.70;;;;;;5057890;28;20073;-78
2022/06/03 04:14:14;;;;;;;7.95;3.15;;;22.40;96.70;;;;;;5039951;28;20057;-79
2022/06/03 04:17:24;;;;;;;8.15;2.92;;;22.20;96.70;;;;;;5051604;28;20053;-78
2022/06/03 04:20:25;;;;;;;8.18;3.28;;;22.20;96.70;;;;;;5059280;28;20135;-78
2022/06/03 04:23:22;;;;;;;6.75;3.15;;;22.20;96.70;;;;;;5054428;28;20392;-79
2022/06/03 04:26:23;;;;;;;6.65;3.40;;;22.20;96.70;;;;;;5054941;28;20103;-78
2022/06/03 04:29:07;;;;;;;7.70;3.25;;;22.20;96.70;;;;;;5041375;28;20044;-79
2022/06/03 04:32:19;;;;;;;8.52;3.15;;;22.10;96.70;;;;;;5049969;28;20422;-79
2022/06/03 04:35:31;;;;;;;7.95;2.90;;;22.20;96.70;;;;;;5053271;28;20062;-78
2022/06/03 04:38:38;;;;;;;7.05;3.15;;;22.40;96.70;;;;;;5058219;28;20052;-79
2022/06/03 04:41:54;;;;;;;5.90;3.30;;;22.40;96.70;;;;;;5034928;28;20056;-79
2022/06/03 04:45:12;;;;;;;8.35;3.78;;;22.40;96.70;;;;;;4973087;28;20051;-78
2022/06/03 04:48:18;;;;;;;11.40;4.35;;;22.40;96.70;;;;;;4973735;28;20407;-79
2022/06/03 04:51:19;;;;;;;6.45;3.42;;;22.50;96.70;;;;;;5052108;28;20051;-78
2022/06/03 04:54:25;;;;;;;9.60;3.90;;;22.60;96.70;;;;;;5054361;28;20091;-79
2022/06/03 04:57:38;;;;;;;9.30;4.20;;;22.60;96.70;;;;;;5052329;28;20049;-78
2022/06/03 05:00:25;;;;;;;7.15;4.43;;;22.70;96.70;;;;;;5058310;28;20045;-79
2022/06/03 05:03:27;;;;;;;;;;;22.70;96.70;;;;;;5051336;28;20049;-78
2022/06/03 05:06:47;;;;;;;25.00;14.07;;;22.70;96.70;;;;;;5050765;28;20394;-78
2022/06/03 05:10:02;;;;;;;26.98;16.48;;;22.80;96.70;;;;;;5053620;28;20143;-78
2022/06/03 05:13:12;;;;;;;16.38;10.13;;;22.90;96.70;;;;;;5055315;28;20049;-79
2022/06/03 05:16:07;;;;;;;7.70;4.93;;;22.90;96.70;;;;;;5012801;28;20430;-80
2022/06/03 05:19:25;;;;;;;11.18;5.50;;;22.90;96.70;;;;;;5056030;28;20049;-79
2022/06/03 05:22:26;;;;;;;8.40;5.23;;;22.90;96.70;;;;;;4992900;28;20050;-79
2022/06/03 05:25:17;;;;;;;12.82;7.50;;;23.00;96.70;;;;;;5006698;28;20052;-80
2022/06/03 05:28:11;;;;;;;13.07;7.93;;;23.10;96.70;;;;;;5005301;28;20088;-79
2022/06/03 05:31:27;;;;;;;15.13;8.95;;;23.20;96.70;;;;;;5011224;28;20053;-80
2022/06/03 05:34:28;;;;;;;15.25;8.52;;;23.30;96.70;;;;;;5015894;28;20580;-79
2022/06/03 05:37:46;;;;;;;13.20;8.68;;;23.40;96.70;;;;;;4998703;28;20101;-79
2022/06/03 05:40:34;;;;;;;12.02;7.90;;;23.40;96.70;;;;;;4971817;28;20550;-78
2022/06/03 05:43:35;;;;;;;12.05;6.50;;;23.50;96.70;;;;;;4992965;28;20052;-79
2022/06/03 05:46:10;;;;;;;7.72;5.22;;;23.50;96.70;;;;;;4989976;28;20041;-80
2022/06/03 05:48:51;;;;;;;8.90;4.47;;;23.60;96.70;;;;;;5018604;28;20116;-80
2022/06/03 05:51:34;;;;;;;8.15;3.92;;;23.50;96.70;;;;;;5002917;28;20052;-79
2022/06/03 05:54:12;;;;;;;9.88;4.40;;;23.60;96.70;;;;;;5051646;28;20060;-79
2022/06/03 05:56:48;;;;;;;11.90;3.80;;;23.50;96.70;;;;;;5060930;28;20049;-80
2022/06/03 05:59:38;;;;;;;7.67;3.67;;;23.50;96.70;;;;;;5055190;28;20076;-79
2022/06/03 06:02:16;;;;;;;15.27;4.20;;;23.60;96.70;;;;;;5060849;28;20719;-77
2022/06/03 06:05:17;;;;;;;9.02;3.85;;;23.50;96.70;;;;;;5050900;28;20521;-79
2022/06/03 06:07:53;;;;;;;7.60;3.50;;;23.60;96.70;;;;;;4960273;28;20051;-79
2022/06/03 06:10:39;;;;;;;7.63;3.95;;;23.60;96.70;;;;;;4974653;28;20062;-80
2022/06/03 06:13:38;;;;;;;7.75;4.10;;;23.70;96.70;;;;;;4961132;28;20138;-79
2022/06/03 06:16:10;;;;;;;7.95;3.47;;;23.80;96.70;;;;;;4977686;28;20046;-79
2022/06/03 06:19:07;;;;;;;5.55;3.70;;;23.80;96.70;;;;;;4974088;28;20074;-79
2022/06/03 06:21:59;;;;;;;8.30;3.80;;;23.90;96.70;;;;;;4941034;28;20141;-79
2022/06/03 06:24:58;;;;;;;7.68;3.40;;;24.00;96.70;;;;;;4979561;28;20070;-79
2022/06/03 06:27:59;;;;;;;9.02;4.35;;;24.00;96.70;;;;;;4972337;28;20110;-81
2022/06/03 06:30:49;;;;;;;10.55;4.75;;;24.10;96.70;;;;;;4982373;28;20058;-94
2022/06/03 06:33:56;;;;;;;8.25;4.45;;;24.20;96.70;;;;;;4964470;28;20193;-82
2022/06/03 06:37:13;;;;;;;8.93;4.50;;;24.40;96.70;;;;;;4965396;28;20095;-84
2022/06/03 06:39:51;;;;;;;7.75;4.40;;;24.50;96.70;;;;;;4970542;28;20304;-85
2022/06/03 06:42:30;;;;;;;7.22;4.40;;;24.60;96.70;;;;;;4955072;28;20050;-85
2022/06/03 06:45:15;;;;;;;9.30;4.40;;;24.70;96.70;;;;;;5032900;28;20045;-84
2022/06/03 06:47:53;;;;;;;8.38;4.05;;;24.80;96.70;;;;;;5067441;28;20045;-84
2022/06/03 06:50:26;;;;;;;10.15;4.03;;;25.00;96.70;;;;;;5050696;28;20151;-84
2022/06/03 06:53:04;;;;;;;11.73;4.40;;;25.20;96.70;;;;;;5056840;28;20045;-85
2022/06/03 06:55:48;;;;;;;8.38;3.95;;;25.30;96.70;;;;;;5061475;28;20807;-83
2022/06/03 06:58:32;;;;;;;9.13;4.57;;;25.40;96.70;;;;;;5065160;28;20044;-82
2022/06/03 07:01:03;;;;;;;13.80;4.63;;;25.60;96.70;;;;;;5054176;28;20052;-88
2022/06/03 07:03:51;;;;;;;11.07;4.72;;;25.70;96.70;;;;;;5057306;28;20044;-82
2022/06/03 07:06:31;;;;;;;9.15;4.65;;;25.80;96.70;;;;;;5060897;28;20048;-85
2022/06/03 07:09:24;;;;;;;11.65;4.35;;;25.80;96.70;;;;;;5063151;28;20036;-85
2022/06/03 07:11:56;;;;;;;9.55;4.35;;;25.80;96.70;;;;;;5067743;28;20560;-84
2022/06/03 07:14:28;;;;;;;7.30;3.78;;;25.90;96.70;;;;;;5066142;28;20073;-86
2022/06/03 07:20:01;;;;;;;8.27;3.78;;;26.00;96.70;;;;;;5067426;28;20131;-82
2022/06/03 07:22:33;;;;;;;8.10;4.10;;;26.20;96.70;;;;;;5058844;28;20143;-86
2022/06/03 07:25:11;;;;;;;6.57;3.25;;;26.30;96.70;;;;;;5062615;28;20502;-86
2022/06/03 07:27:50;;;;;;;10.73;3.45;;;26.40;96.70;;;;;;5050919;28;20059;-84
2022/06/03 07:30:22;;;;;;;7.10;3.17;;;26.50;96.70;;;;;;5065439;28;20055;-85
2022/06/03 07:33:06;;;;;;;8.05;3.65;;;26.50;96.70;;;;;;5062559;28;20555;-86
2022/06/03 07:35:43;;;;;;;8.35;3.35;;;26.60;96.70;;;;;;5058731;28;20048;-86
2022/06/03 07:38:21;;;;;;;8.75;3.30;;;26.70;96.70;;;;;;5064911;28;20139;-84
2022/06/03 07:40:57;;;;;;;8.52;3.28;;;26.70;96.70;;;;;;5057728;28;20052;-87
2022/06/03 07:43:30;;;;;;;5.47;2.90;;;26.80;96.70;;;;;;5059817;28;20139;-83
2022/06/03 07:46:03;;;;;;;9.35;3.10;;;26.90;96.70;;;;;;5065996;28;20720;-85
2022/06/03 07:48:34;;;;;;;8.60;3.22;;;27.10;96.70;;;;;;5060260;28;20470;-86
2022/06/03 07:51:10;;;;;;;6.38;2.67;;;27.20;96.70;;;;;;5066933;28;20036;-88
2022/06/03 07:53:45;;;;;;;8.25;3.55;;;27.30;96.70;;;;;;5065014;28;20041;-85
2022/06/03 07:56:19;;;;;;;6.53;2.40;;;27.40;96.70;;;;;;5050725;28;20041;-87
2022/06/03 07:58:51;;;;;;;5.65;2.70;;;27.50;96.70;;;;;;5049263;28;20056;-87
2022/06/03 08:01:22;;;;;;;5.88;2.75;;;27.50;96.70;;;;;;5053003;28;20049;-85
2022/06/03 08:03:51;;;;;;;6.35;2.22;;;27.60;96.70;;;;;;5052480;28;20052;-86
2022/06/03 08:06:27;;;;;;;4.68;2.53;;;27.70;96.70;;;;;;5066366;28;20495;-83
2022/06/03 08:11:43;;;;;;;5.32;2.42;;;27.90;96.70;;;;;;5060035;28;20049;-85
2022/06/03 08:14:11;;;;;;;5.20;2.67;;;27.90;96.70;;;;;;5065510;28;20051;-83
2022/06/03 08:16:45;;;;;;;16.70;2.70;;;28.10;96.70;;;;;;5065861;28;20067;-83
2022/06/03 08:19:17;;;;;;;21.55;2.95;;;28.20;96.70;;;;;;5066191;28;20072;-84
2022/06/03 08:21:52;;;;;;;6.20;2.17;;;28.20;96.70;;;;;;5066157;28;20470;-87
2022/06/03 08:24:27;;;;;;;5.25;2.55;;;28.20;96.70;;;;;;5049890;28;20493;-79
2022/06/03 08:26:59;;;;;;;7.60;2.20;;;28.20;96.70;;;;;;5052571;28;20076;-79
2022/06/03 08:29:33;;;;;;;4.93;2.53;;;28.30;96.70;;;;;;5058885;28;20044;-81
2022/06/03 08:32:05;;;;;;;3.70;2.17;;;28.30;96.70;;;;;;5058457;28;20047;-82
2022/06/03 08:34:38;;;;;;;5.32;2.28;;;28.30;96.70;;;;;;5039630;28;20053;-82
2022/06/03 08:37:13;;;;;;;7.72;2.53;;;28.20;96.70;;;;;;5042854;28;20072;-80
2022/06/03 08:39:44;;;;;;;5.97;2.72;;;28.30;96.70;;;;;;5058592;28;20048;-79
2022/06/03 08:42:31;;;;;;;2.78;2.47;;;28.30;96.70;;;;;;5055762;28;20036;-81
2022/06/03 08:45:14;;;;;;;5.20;2.40;;;28.40;96.70;;;;;;5059244;28;20057;-79
2022/06/03 08:47:50;;;;;;;6.30;2.60;;;28.50;96.70;;;;;;5057429;28;20308;-79
2022/06/03 08:50:34;;;;;;;5.47;2.67;;;28.50;96.70;;;;;;5059526;28;20048;-80
2022/06/03 08:53:07;;;;;;;5.70;3.05;;;28.50;96.70;;;;;;5054840;28;20056;-81
2022/06/03 08:55:44;;;;;;;6.07;3.00;;;28.50;96.70;;;;;;5056344;28;20091;-79
2022/06/03 08:58:32;;;;;;;7.22;2.88;;;28.50;96.70;;;;;;5060719;28;20131;-81
2022/06/03 09:01:12;;;;;;;7.18;2.90;;;28.50;96.70;;;;;;5058344;28;20754;-79
2022/06/03 09:03:49;;;;;;;5.63;2.53;;;28.50;96.70;;;;;;5058732;28;20547;-80
2022/06/03 09:06:31;;;;;;;5.70;2.60;;;28.40;96.70;;;;;;5056304;28;20530;-84
2022/06/03 09:09:06;;;;;;;7.72;3.13;;;28.40;96.70;;;;;;5067331;28;20124;-82
2022/06/03 09:11:40;;;;;;;4.40;2.57;;;28.20;96.70;;;;;;5065936;28;20044;-81
2022/06/03 09:14:12;;;;;;;5.20;2.80;;;28.20;96.70;;;;;;5061784;28;20283;-78
2022/06/03 09:16:41;;;;;;;9.60;3.63;;;28.40;96.70;;;;;;5046547;28;20049;-81
2022/06/03 09:19:12;;;;;;;9.40;3.00;;;28.60;96.70;;;;;;5062570;28;20534;-80
2022/06/03 09:21:44;;;;;;;4.88;2.60;;;28.90;96.70;;;;;;5055208;28;20044;-82
2022/06/03 09:24:16;;;;;;;8.50;3.95;;;28.90;96.70;;;;;;5068108;28;20510;-82
2022/06/03 09:26:47;;;;;;;6.20;3.30;;;29.00;96.70;;;;;;5058627;28;20072;-82
2022/06/03 09:29:22;;;;;;;8.50;4.07;;;29.10;96.70;;;;;;5068356;28;20053;-84
2022/06/03 09:31:52;;;;;;;23.05;4.78;;;29.00;96.70;;;;;;5069537;28;20627;-85
2022/06/03 09:34:25;;;;;;;15.02;4.32;;;28.90;96.70;;;;;;5041041;28;20163;-86
2022/06/03 09:36:54;;;;;;;7.47;3.75;;;28.90;96.70;;;;;;5067639;28;20036;-89
2022/06/03 09:39:44;;;;;;;10.32;3.60;;;28.80;96.70;;;;;;5065912;28;20048;-82
2022/06/03 09:42:15;;;;;;;7.55;3.75;;;28.70;96.70;;;;;;5065405;28;20072;-89
2022/06/03 09:44:45;;;;;;;7.18;3.67;;;28.60;96.70;;;;;;5059482;28;20052;-80
2022/06/03 09:47:18;;;;;;;7.32;3.65;;;28.40;96.70;;;;;;5061155;28;20487;-79
2022/06/03 09:49:48;;;;;;;7.07;3.70;;;28.30;96.70;;;;;;5053051;28;20049;-80
2022/06/03 09:52:20;;;;;;;6.05;3.72;;;28.20;96.70;;;;;;5066483;28;20127;-84
2022/06/03 09:54:51;;;;;;;8.68;3.67;;;28.00;96.70;;;;;;5065108;28;20047;-82
2022/06/03 09:57:22;;;;;;;7.50;3.70;;;28.00;96.70;;;;;;5057540;28;20045;-83
2022/06/03 09:59:55;;;;;;;8.75;3.38;;;28.00;96.70;;;;;;5044720;28;20055;-81
2022/06/03 10:02:24;;;;;;;6.88;3.17;;;28.00;96.70;;;;;;5061473;28;20049;-84
2022/06/03 10:04:52;;;;;;;8.57;4.07;;;27.90;96.70;;;;;;5058310;28;20044;-86
2022/06/03 10:07:25;;;;;;;9.40;3.85;;;27.80;96.70;;;;;;5043194;28;20056;-84
2022/06/03 10:12:49;;;;;;;7.45;3.88;;;27.70;96.70;;;;;;5056192;28;20068;-80
2022/06/03 10:18:32;;;;;;;9.57;3.97;;;27.60;96.70;;;;;;5056523;28;20060;-81
2022/06/03 10:21:26;;;;;;;7.85;4.13;;;27.60;96.70;;;;;;5058105;28;20470;-79
2022/06/03 10:23:57;;;;;;;14.65;4.25;;;27.60;96.70;;;;;;5061051;28;20530;-81
2022/06/03 10:26:39;;;;;;;10.07;4.65;;;27.60;96.70;;;;;;5064794;28;20057;-82
2022/06/03 10:29:09;;;;;;;16.73;5.18;;;27.60;96.70;;;;;;5062691;28;20044;-83
2022/06/03 10:31:48;;;;;;;12.98;4.65;;;27.70;96.70;;;;;;5063251;28;20089;-83
2022/06/03 10:34:21;;;;;;;11.98;5.22;;;27.70;96.70;;;;;;5066509;28;20522;-83
2022/06/03 10:36:53;;;;;;;8.93;5.10;;;27.80;96.70;;;;;;5065046;28;20052;-81
2022/06/03 10:39:27;;;;;;;11.48;4.93;;;28.00;96.70;;;;;;5063120;28;20052;-82
2022/06/03 10:42:00;;;;;;;12.38;5.45;;;28.10;96.70;;;;;;5047178;28;20049;-82
2022/06/03 10:44:33;;;;;;;10.32;5.07;;;28.20;96.70;;;;;;5047011;28;20056;-82
2022/06/03 10:47:04;;;;;;;8.63;4.30;;;28.50;96.70;;;;;;5046712;28;20129;-80
2022/06/03 10:49:37;;;;;;;15.15;4.97;;;28.60;96.70;;;;;;5062008;28;20066;-82
2022/06/03 11:03:37;;;;;;;6.18;3.90;;;28.50;96.70;;;;;;5059576;28;20058;-81
2022/06/03 11:06:07;;;;;;;7.22;4.00;;;28.60;96.70;;;;;;5063863;28;20119;-80
2022/06/03 11:08:51;;;;;;;7.25;4.43;;;28.80;96.70;;;;;;5060455;28;20098;-79
2022/06/03 11:11:38;;;;;;;9.60;4.15;;;29.10;96.70;;;;;;5062730;28;20036;-79
2022/06/03 11:14:35;;;;;;;8.23;4.13;;;29.20;96.70;;;;;;5058339;28;20045;-81
2022/06/03 11:17:05;;;;;;;;;;;29.20;96.70;;;;;;5061096;28;20040;-81
2022/06/03 11:19:35;;;;;;;7.22;4.18;;;29.30;96.70;;;;;;5059143;28;21378;-83
2022/06/03 11:22:26;;;;;;;9.23;4.05;;;29.40;96.70;;;;;;5042363;28;20072;-83
2022/06/03 11:24:58;;;;;;;10.27;3.85;;;29.60;96.70;;;;;;5051061;28;20083;-82
2022/06/03 11:27:29;;;;;;;9.52;4.35;;;29.80;96.70;;;;;;5056941;28;20501;-85
2022/06/03 11:30:05;;;;;;;7.45;3.70;;;29.90;96.70;;;;;;5050175;28;20155;-84
2022/06/03 11:32:34;;;;;;;6.03;3.65;;;29.80;96.70;;;;;;5050551;28;20708;-84
2022/06/03 11:35:06;;;;;;;6.50;3.47;;;29.80;96.70;;;;;;5051507;28;20052;-85
2022/06/03 11:37:38;;;;;;;8.68;3.45;;;29.80;96.70;;;;;;5059758;28;20128;-85
2022/06/03 11:40:13;;;;;;;3.72;3.00;;;29.70;96.70;;;;;;5057554;28;20052;-83
2022/06/03 11:42:47;;;;;;;3.85;2.83;;;29.60;96.70;;;;;;5065146;28;20071;-82
2022/06/03 11:45:19;;;;;;;7.57;3.72;;;29.50;96.70;;;;;;5061435;28;20127;-88
2022/06/03 11:47:54;;;;;;;5.05;2.90;;;29.40;96.70;;;;;;5062252;28;20131;-86
2022/06/03 11:50:25;;;;;;;4.03;2.38;;;29.30;96.70;;;;;;5067768;28;20048;-87
2022/06/03 11:52:56;;;;;;;7.20;2.80;;;29.30;96.70;;;;;;5065243;28;20064;-84
2022/06/03 11:55:27;;;;;;;4.50;2.72;;;29.20;96.70;;;;;;5047246;28;20056;-83
2022/06/03 11:58:08;;;;;;;9.32;3.92;;;29.30;96.70;;;;;;5063521;28;20135;-83
2022/06/03 12:00:44;;;;;;;6.32;3.22;;;29.30;96.70;;;;;;5064636;28;20093;-82
2022/06/03 12:03:35;;;;;;;7.70;2.77;;;29.30;96.70;;;;;;5063429;28;20048;-83
2022/06/03 12:06:08;;;;;;;11.07;3.53;;;29.30;96.70;;;;;;5060067;28;20048;-84
2022/06/03 12:08:46;;;;;;;9.50;2.55;;;29.30;96.70;;;;;;5046327;28;20139;-84
2022/06/03 12:14:31;;;;;;;9.70;3.30;;;29.50;96.70;;;;;;5062745;28;20052;-83
2022/06/03 12:17:25;;;;;;;7.13;2.70;;;29.60;96.70;;;;;;5061704;28;20072;-86
2022/06/03 12:19:54;;;;;;;9.82;2.60;;;29.60;96.70;;;;;;5057993;28;20045;-82
2022/06/03 12:22:38;;;;;;;9.32;3.33;;;29.60;96.70;;;;;;5060060;28;20136;-82
2022/06/03 12:25:45;;;;;;;5.18;2.78;;;29.50;96.70;;;;;;5060651;28;20049;-82
2022/06/03 12:28:21;;;;;;;7.70;3.33;;;29.40;96.70;;;;;;5051579;28;20525;-82
2022/06/03 12:30:51;;;;;;;8.00;3.50;;;29.50;96.70;;;;;;5061226;28;20045;-81
2022/06/03 12:33:31;;;;;;;8.60;3.15;;;29.60;96.70;;;;;;5065161;28;20541;-82
2022/06/03 12:36:28;;;;;;;8.27;3.65;;;29.70;96.70;;;;;;5062660;28;20090;-83
2022/06/03 12:39:24;;;;;;;4.32;2.83;;;29.80;96.70;;;;;;5062070;28;20135;-81
2022/06/03 12:42:12;;;;;;;11.13;3.65;;;30.00;96.70;;;;;;5063145;28;20088;-82
2022/06/03 12:44:51;;;;;;;3.72;2.63;;;30.30;96.70;;;;;;5066636;28;20111;-85
2022/06/03 12:47:50;;;;;;;8.35;2.63;;;30.50;96.70;;;;;;5064037;28;20070;-82
2022/06/03 12:50:48;;;;;;;8.25;2.92;;;31.00;96.70;;;;;;5063874;28;20063;-85
2022/06/03 12:53:33;;;;;;;6.65;2.33;;;31.20;96.70;;;;;;5053099;28;20064;-84
2022/06/03 12:56:07;;;;;;;;;;;31.20;96.70;;;;;;5063798;28;20040;-83
2022/06/03 12:58:52;;;;;;;3.38;2.33;;;30.90;95.70;;;;;;5066089;28;19973;-84
2022/06/03 13:01:56;;;;;;;6.15;2.72;;;30.60;96.70;;;;;;5068461;28;20080;-84
2022/06/03 13:04:41;;;;;;;8.13;2.15;;;30.40;96.70;;;;;;5065491;28;20149;-81
2022/06/03 13:07:32;;;;;;;7.00;2.90;;;30.30;96.30;;;;;;5062107;28;20047;-82
2022/06/03 13:10:31;;;;;;;7.22;2.85;;;30.30;96.70;;;;;;5064365;28;20092;-82
2022/06/03 13:13:40;;;;;;;5.47;2.28;;;30.20;96.70;;;;;;5054898;28;20592;-83
2022/06/03 13:16:43;;;;;;;4.68;1.80;;;30.10;96.70;;;;;;5058155;28;20140;-82
2022/06/03 13:19:55;;;;;;;4.43;2.75;;;30.00;94.70;;;;;;5059834;28;20060;-81
2022/06/03 13:22:47;;;;;;;4.18;2.40;;;30.10;96.70;;;;;;5063472;28;20056;-82
2022/06/03 13:25:36;;;;;;;5.75;2.17;;;30.10;96.70;;;;;;5080606;28;20515;-82
2022/06/03 13:28:12;;;;;;;5.75;2.28;;;30.10;96.70;;;;;;5060964;28;20044;-79
2022/06/03 13:30:40;;;;;;;5.55;2.38;;;30.00;96.70;;;;;;5057406;28;20040;-79
2022/06/03 13:33:19;;;;;;;4.65;2.45;;;29.80;96.70;;;;;;5061975;28;20041;-81
2022/06/03 13:36:04;;;;;;;4.00;2.25;;;29.70;96.70;;;;;;5056675;28;20468;-81
2022/06/03 13:38:42;;;;;;;4.18;2.40;;;29.50;96.70;;;;;;5063259;28;20075;-80
2022/06/03 13:44:38;;;;;;;5.05;2.42;;;29.40;96.70;;;;;;5057364;28;20049;-81
2022/06/03 13:47:10;;;;;;;6.43;3.05;;;29.30;96.70;;;;;;5039648;28;20056;-82
2022/06/03 13:49:47;;;;;;;6.68;2.78;;;29.20;96.70;;;;;;5054222;28;20033;-79
2022/06/03 13:52:23;;;;;;;9.15;3.30;;;29.20;96.70;;;;;;5054181;28;20048;-83
2022/06/03 13:55:00;;;;;;;9.02;3.60;;;29.10;96.70;;;;;;5067470;28;20086;-83
2022/06/03 13:57:32;;;;;;;6.03;3.50;;;29.10;96.70;;;;;;5063577;28;20068;-82
2022/06/03 14:00:19;;;;;;;7.78;3.33;;;29.00;96.70;;;;;;5054046;28;20049;-76
2022/06/03 14:02:49;;;;;;;9.13;3.38;;;29.00;96.70;;;;;;5059697;28;20051;-83
2022/06/03 14:05:37;;;;;;;12.52;3.95;;;29.00;96.70;;;;;;5064078;28;20059;-84
2022/06/03 14:08:18;;;;;;;9.93;3.60;;;29.00;96.70;;;;;;5057148;28;20049;-83
2022/06/03 14:10:52;;;;;;;7.25;3.60;;;28.90;96.70;;;;;;5061942;28;20041;-81
2022/06/03 14:13:31;;;;;;;7.78;3.25;;;28.90;96.70;;;;;;5068242;28;20058;-81
2022/06/03 14:16:04;;;;;;;4.85;2.72;;;29.00;96.70;;;;;;5059998;28;20045;-79
2022/06/03 14:18:48;;;;;;;7.97;2.92;;;29.00;96.70;;;;;;5057314;28;20399;-81
2022/06/03 14:21:43;;;;;;;7.57;3.22;;;28.90;96.70;;;;;;5055028;28;20063;-80
2022/06/03 14:24:18;;;;;;;6.65;3.28;;;28.90;96.70;;;;;;5054491;28;20506;-81
2022/06/03 14:26:52;;;;;;;10.05;3.22;;;28.80;96.70;;;;;;5052592;28;20334;-81
2022/06/03 14:29:24;;;;;;;5.53;3.30;;;28.80;96.70;;;;;;5055464;28;20128;-78
2022/06/03 14:31:57;;;;;;;8.45;3.38;;;28.80;96.70;;;;;;5066141;28;20037;-84
2022/06/03 14:34:28;;;;;;;7.13;3.03;;;28.80;96.70;;;;;;5063223;28;20521;-83
2022/06/03 14:37:00;;;;;;;9.15;3.25;;;28.80;96.70;;;;;;5064123;28;20611;-83
2022/06/03 14:39:31;;;;;;;5.35;3.35;;;28.70;96.70;;;;;;5067991;28;20120;-87
2022/06/03 14:42:05;;;;;;;10.32;3.60;;;28.60;96.70;;;;;;5067734;28;20052;-84
2022/06/03 14:44:36;;;;;;;7.03;3.70;;;28.70;96.70;;;;;;5065291;28;20049;-79
2022/06/03 14:47:08;;;;;;;6.90;3.42;;;28.70;96.70;;;;;;5058164;28;20056;-86
2022/06/03 14:49:46;;;;;;;8.45;3.20;;;28.70;96.70;;;;;;5059531;28;20049;-84
2022/06/03 14:52:18;;;;;;;6.85;2.95;;;28.70;96.70;;;;;;5045673;28;20057;-83
2022/06/03 14:54:53;;;;;;;5.78;3.15;;;28.70;96.70;;;;;;5057721;28;20055;-84